sensor_id;sensor_type;location;lat;lon;timestamp;P1;durP1;ratioP1;P2;durP2;ratioP2
679;SDS011;322;48.846;9.230;2022-08-19T00:00:49;17.93;;;16.10;;
679;SDS011;322;48.846;9.230;2022-08-19T00:03:16;17.80;;;16.20;;
679;SDS011;322;48.846;9.230;2022-08-19T00:05:43;18.47;;;16.80;;
679;SDS011;322;48.846;9.230;2022-08-19T00:08:10;18.00;;;16.20;;
679;SDS011;322;48.846;9.230;2022-08-19T00:10:38;17.00;;;15.33;;
679;SDS011;322;48.846;9.230;2022-08-19T00:13:05;19.00;;;17.10;;
679;SDS011;322;48.846;9.230;2022-08-19T00:15:32;16.77;;;15.07;;
679;SDS011;322;48.846;9.230;2022-08-19T00:17:59;18.10;;;16.33;;
679;SDS011;322;48.846;9.230;2022-08-19T00:20:26;16.87;;;15.17;;
679;SDS011;322;48.846;9.230;2022-08-19T00:22:53;17.17;;;15.47;;
679;SDS011;322;48.846;9.230;2022-08-19T00:25:20;17.60;;;15.90;;
679;SDS011;322;48.846;9.230;2022-08-19T00:27:49;18.90;;;16.83;;
679;SDS011;322;48.846;9.230;2022-08-19T00:30:16;18.37;;;16.67;;
679;SDS011;322;48.846;9.230;2022-08-19T00:32:43;17.00;;;15.27;;
679;SDS011;322;48.846;9.230;2022-08-19T00:35:10;18.30;;;16.50;;
679;SDS011;322;48.846;9.230;2022-08-19T00:37:37;16.93;;;15.33;;
679;SDS011;322;48.846;9.230;2022-08-19T00:40:08;17.00;;;15.27;;
679;SDS011;322;48.846;9.230;2022-08-19T00:42:36;16.60;;;15.00;;
679;SDS011;322;48.846;9.230;2022-08-19T00:45:05;15.97;;;14.40;;
679;SDS011;322;48.846;9.230;2022-08-19T00:47:36;17.70;;;15.90;;
679;SDS011;322;48.846;9.230;2022-08-19T00:50:04;16.63;;;15.03;;
679;SDS011;322;48.846;9.230;2022-08-19T00:52:33;17.10;;;15.50;;
679;SDS011;322;48.846;9.230;2022-08-19T00:55:04;18.03;;;16.40;;
679;SDS011;322;48.846;9.230;2022-08-19T00:57:37;16.30;;;14.77;;
679;SDS011;322;48.846;9.230;2022-08-19T01:00:09;16.97;;;15.33;;
679;SDS011;322;48.846;9.230;2022-08-19T01:02:39;18.37;;;15.87;;
679;SDS011;322;48.846;9.230;2022-08-19T01:05:08;17.77;;;16.00;;
679;SDS011;322;48.846;9.230;2022-08-19T01:07:37;17.07;;;15.37;;
679;SDS011;322;48.846;9.230;2022-08-19T01:10:07;17.70;;;15.17;;
679;SDS011;322;48.846;9.230;2022-08-19T01:12:36;17.03;;;15.43;;
679;SDS011;322;48.846;9.230;2022-08-19T01:15:03;18.10;;;16.13;;
679;SDS011;322;48.846;9.230;2022-08-19T01:17:33;18.60;;;16.80;;
679;SDS011;322;48.846;9.230;2022-08-19T01:20:02;18.53;;;16.73;;
679;SDS011;322;48.846;9.230;2022-08-19T01:22:31;17.60;;;15.80;;
679;SDS011;322;48.846;9.230;2022-08-19T01:25:04;16.90;;;15.20;;
679;SDS011;322;48.846;9.230;2022-08-19T01:27:36;17.53;;;15.87;;
679;SDS011;322;48.846;9.230;2022-08-19T01:30:05;18.73;;;16.73;;
679;SDS011;322;48.846;9.230;2022-08-19T01:32:33;17.37;;;15.67;;
679;SDS011;322;48.846;9.230;2022-08-19T01:35:01;17.17;;;15.40;;
679;SDS011;322;48.846;9.230;2022-08-19T01:37:29;17.60;;;15.80;;
679;SDS011;322;48.846;9.230;2022-08-19T01:39:57;18.57;;;16.50;;
679;SDS011;322;48.846;9.230;2022-08-19T01:42:24;17.03;;;15.27;;
679;SDS011;322;48.846;9.230;2022-08-19T01:44:51;18.43;;;16.60;;
679;SDS011;322;48.846;9.230;2022-08-19T01:47:18;17.30;;;15.60;;
679;SDS011;322;48.846;9.230;2022-08-19T01:49:44;18.30;;;16.50;;
679;SDS011;322;48.846;9.230;2022-08-19T01:52:11;18.37;;;16.53;;
679;SDS011;322;48.846;9.230;2022-08-19T01:54:38;18.90;;;15.93;;
679;SDS011;322;48.846;9.230;2022-08-19T01:57:06;17.97;;;15.77;;
679;SDS011;322;48.846;9.230;2022-08-19T01:59:37;18.50;;;16.70;;
679;SDS011;322;48.846;9.230;2022-08-19T02:02:04;20.67;;;18.53;;
679;SDS011;322;48.846;9.230;2022-08-19T02:04:32;20.10;;;18.00;;
679;SDS011;322;48.846;9.230;2022-08-19T02:06:59;18.50;;;16.70;;
679;SDS011;322;48.846;9.230;2022-08-19T02:09:26;20.50;;;18.30;;
679;SDS011;322;48.846;9.230;2022-08-19T02:11:53;22.87;;;17.70;;
679;SDS011;322;48.846;9.230;2022-08-19T02:14:21;21.80;;;19.57;;
679;SDS011;322;48.846;9.230;2022-08-19T02:16:48;19.10;;;17.00;;
679;SDS011;322;48.846;9.230;2022-08-19T02:19:15;19.80;;;17.70;;
679;SDS011;322;48.846;9.230;2022-08-19T02:21:42;22.30;;;19.97;;
679;SDS011;322;48.846;9.230;2022-08-19T02:24:09;19.83;;;17.77;;
679;SDS011;322;48.846;9.230;2022-08-19T02:26:37;19.27;;;17.37;;
679;SDS011;322;48.846;9.230;2022-08-19T02:29:04;19.30;;;17.40;;
679;SDS011;322;48.846;9.230;2022-08-19T02:31:32;19.43;;;17.53;;
679;SDS011;322;48.846;9.230;2022-08-19T02:33:59;19.10;;;17.13;;
679;SDS011;322;48.846;9.230;2022-08-19T02:36:26;20.97;;;18.73;;
679;SDS011;322;48.846;9.230;2022-08-19T02:38:53;22.33;;;20.17;;
679;SDS011;322;48.846;9.230;2022-08-19T02:41:20;20.30;;;18.07;;
679;SDS011;322;48.846;9.230;2022-08-19T02:43:48;21.87;;;19.57;;
679;SDS011;322;48.846;9.230;2022-08-19T02:46:17;23.30;;;19.87;;
679;SDS011;322;48.846;9.230;2022-08-19T02:48:47;23.30;;;20.97;;
679;SDS011;322;48.846;9.230;2022-08-19T02:51:18;21.60;;;19.40;;
679;SDS011;322;48.846;9.230;2022-08-19T02:53:46;24.17;;;21.57;;
679;SDS011;322;48.846;9.230;2022-08-19T02:56:13;23.03;;;20.63;;
679;SDS011;322;48.846;9.230;2022-08-19T02:58:40;24.73;;;21.90;;
679;SDS011;322;48.846;9.230;2022-08-19T03:01:08;24.03;;;21.57;;
679;SDS011;322;48.846;9.230;2022-08-19T03:03:35;23.13;;;20.07;;
679;SDS011;322;48.846;9.230;2022-08-19T03:06:05;24.87;;;22.27;;
679;SDS011;322;48.846;9.230;2022-08-19T03:08:33;24.70;;;21.87;;
679;SDS011;322;48.846;9.230;2022-08-19T03:10:59;23.30;;;20.93;;
679;SDS011;322;48.846;9.230;2022-08-19T03:13:26;24.37;;;21.53;;
679;SDS011;322;48.846;9.230;2022-08-19T03:15:53;24.30;;;21.80;;
679;SDS011;322;48.846;9.230;2022-08-19T03:18:20;24.53;;;21.90;;
679;SDS011;322;48.846;9.230;2022-08-19T03:20:48;25.53;;;22.93;;
679;SDS011;322;48.846;9.230;2022-08-19T03:23:19;23.33;;;20.97;;
679;SDS011;322;48.846;9.230;2022-08-19T03:25:47;24.43;;;21.77;;
679;SDS011;322;48.846;9.230;2022-08-19T03:28:15;24.80;;;22.33;;
679;SDS011;322;48.846;9.230;2022-08-19T03:30:43;23.37;;;21.07;;
679;SDS011;322;48.846;9.230;2022-08-19T03:33:21;26.47;;;23.77;;
679;SDS011;322;48.846;9.230;2022-08-19T03:35:58;25.37;;;22.77;;
679;SDS011;322;48.846;9.230;2022-08-19T03:38:29;26.20;;;23.43;;
679;SDS011;322;48.846;9.230;2022-08-19T03:40:55;27.37;;;23.37;;
679;SDS011;322;48.846;9.230;2022-08-19T03:43:22;26.10;;;23.40;;
679;SDS011;322;48.846;9.230;2022-08-19T03:45:58;28.17;;;25.37;;
679;SDS011;322;48.846;9.230;2022-08-19T03:48:27;27.37;;;24.47;;
679;SDS011;322;48.846;9.230;2022-08-19T03:50:55;28.40;;;25.47;;
679;SDS011;322;48.846;9.230;2022-08-19T03:53:23;27.20;;;24.50;;
679;SDS011;322;48.846;9.230;2022-08-19T03:55:52;25.43;;;22.80;;
679;SDS011;322;48.846;9.230;2022-08-19T03:58:20;27.43;;;24.00;;
679;SDS011;322;48.846;9.230;2022-08-19T04:00:47;28.30;;;25.30;;
679;SDS011;322;48.846;9.230;2022-08-19T04:03:14;26.80;;;24.00;;
679;SDS011;322;48.846;9.230;2022-08-19T04:05:43;29.63;;;26.63;;
679;SDS011;322;48.846;9.230;2022-08-19T04:08:10;26.73;;;23.00;;
679;SDS011;322;48.846;9.230;2022-08-19T04:10:38;25.87;;;23.27;;
679;SDS011;322;48.846;9.230;2022-08-19T04:13:06;26.10;;;23.40;;
679;SDS011;322;48.846;9.230;2022-08-19T04:15:38;26.80;;;22.83;;
679;SDS011;322;48.846;9.230;2022-08-19T04:18:06;25.30;;;22.70;;
679;SDS011;322;48.846;9.230;2022-08-19T04:20:37;26.50;;;23.53;;
679;SDS011;322;48.846;9.230;2022-08-19T04:23:05;26.37;;;23.67;;
679;SDS011;322;48.846;9.230;2022-08-19T04:25:34;26.90;;;24.27;;
679;SDS011;322;48.846;9.230;2022-08-19T04:28:03;27.13;;;24.40;;
679;SDS011;322;48.846;9.230;2022-08-19T04:30:31;26.90;;;24.10;;
679;SDS011;322;48.846;9.230;2022-08-19T04:33:03;29.23;;;26.00;;
679;SDS011;322;48.846;9.230;2022-08-19T04:35:34;26.40;;;23.73;;
679;SDS011;322;48.846;9.230;2022-08-19T04:38:02;28.80;;;25.70;;
679;SDS011;322;48.846;9.230;2022-08-19T04:40:29;28.90;;;26.00;;
679;SDS011;322;48.846;9.230;2022-08-19T04:43:13;28.13;;;25.13;;
679;SDS011;322;48.846;9.230;2022-08-19T04:45:42;27.60;;;24.97;;
679;SDS011;322;48.846;9.230;2022-08-19T04:48:09;29.47;;;26.47;;
679;SDS011;322;48.846;9.230;2022-08-19T04:50:39;29.10;;;26.10;;
679;SDS011;322;48.846;9.230;2022-08-19T04:53:07;28.47;;;25.53;;
679;SDS011;322;48.846;9.230;2022-08-19T04:55:37;30.33;;;27.20;;
679;SDS011;322;48.846;9.230;2022-08-19T04:58:05;28.97;;;25.97;;
679;SDS011;322;48.846;9.230;2022-08-19T05:00:32;29.17;;;26.10;;
679;SDS011;322;48.846;9.230;2022-08-19T05:03:00;27.67;;;24.90;;
679;SDS011;322;48.846;9.230;2022-08-19T05:05:27;28.50;;;25.33;;
679;SDS011;322;48.846;9.230;2022-08-19T05:07:56;30.73;;;27.53;;
679;SDS011;322;48.846;9.230;2022-08-19T05:10:23;29.67;;;26.60;;
679;SDS011;322;48.846;9.230;2022-08-19T05:12:50;27.00;;;24.40;;
679;SDS011;322;48.846;9.230;2022-08-19T05:15:16;28.70;;;25.60;;
679;SDS011;322;48.846;9.230;2022-08-19T05:17:43;28.60;;;25.50;;
679;SDS011;322;48.846;9.230;2022-08-19T05:20:31;31.10;;;24.70;;
679;SDS011;322;48.846;9.230;2022-08-19T05:23:16;30.17;;;26.87;;
679;SDS011;322;48.846;9.230;2022-08-19T05:25:42;26.33;;;23.53;;
679;SDS011;322;48.846;9.230;2022-08-19T05:28:09;27.83;;;24.97;;
679;SDS011;322;48.846;9.230;2022-08-19T05:30:36;28.53;;;25.60;;
679;SDS011;322;48.846;9.230;2022-08-19T05:33:03;27.60;;;24.60;;
679;SDS011;322;48.846;9.230;2022-08-19T05:35:31;28.67;;;25.57;;
679;SDS011;322;48.846;9.230;2022-08-19T05:37:58;28.97;;;26.00;;
679;SDS011;322;48.846;9.230;2022-08-19T05:40:25;28.23;;;25.23;;
679;SDS011;322;48.846;9.230;2022-08-19T05:42:51;27.43;;;24.50;;
679;SDS011;322;48.846;9.230;2022-08-19T05:45:18;28.27;;;25.37;;
679;SDS011;322;48.846;9.230;2022-08-19T05:47:46;31.83;;;28.53;;
679;SDS011;322;48.846;9.230;2022-08-19T05:50:13;27.17;;;24.10;;
679;SDS011;322;48.846;9.230;2022-08-19T05:52:43;28.23;;;25.50;;
679;SDS011;322;48.846;9.230;2022-08-19T05:55:10;30.57;;;26.40;;
679;SDS011;322;48.846;9.230;2022-08-19T05:57:37;28.13;;;25.10;;
679;SDS011;322;48.846;9.230;2022-08-19T06:00:05;32.80;;;26.87;;
679;SDS011;322;48.846;9.230;2022-08-19T06:02:35;29.13;;;25.70;;
679;SDS011;322;48.846;9.230;2022-08-19T06:05:02;30.00;;;26.83;;
679;SDS011;322;48.846;9.230;2022-08-19T06:07:31;28.60;;;25.60;;
679;SDS011;322;48.846;9.230;2022-08-19T06:09:59;30.60;;;27.10;;
679;SDS011;322;48.846;9.230;2022-08-19T06:12:26;29.23;;;26.37;;
679;SDS011;322;48.846;9.230;2022-08-19T06:14:58;28.63;;;25.70;;
679;SDS011;322;48.846;9.230;2022-08-19T06:17:25;31.13;;;25.10;;
679;SDS011;322;48.846;9.230;2022-08-19T06:19:52;29.03;;;26.10;;
679;SDS011;322;48.846;9.230;2022-08-19T06:22:18;29.33;;;24.03;;
679;SDS011;322;48.846;9.230;2022-08-19T06:24:45;29.57;;;26.47;;
679;SDS011;322;48.846;9.230;2022-08-19T06:27:13;33.00;;;26.47;;
679;SDS011;322;48.846;9.230;2022-08-19T06:29:40;26.23;;;23.73;;
679;SDS011;322;48.846;9.230;2022-08-19T06:32:08;29.87;;;26.70;;
679;SDS011;322;48.846;9.230;2022-08-19T06:34:36;27.50;;;24.43;;
679;SDS011;322;48.846;9.230;2022-08-19T06:37:03;28.57;;;25.77;;
679;SDS011;322;48.846;9.230;2022-08-19T06:39:31;32.73;;;25.20;;
679;SDS011;322;48.846;9.230;2022-08-19T06:42:01;28.57;;;25.67;;
679;SDS011;322;48.846;9.230;2022-08-19T06:44:33;27.53;;;24.83;;
679;SDS011;322;48.846;9.230;2022-08-19T06:47:02;29.27;;;25.77;;
679;SDS011;322;48.846;9.230;2022-08-19T06:49:29;30.87;;;27.77;;
679;SDS011;322;48.846;9.230;2022-08-19T06:51:57;28.47;;;25.47;;
679;SDS011;322;48.846;9.230;2022-08-19T06:54:24;29.63;;;26.40;;
679;SDS011;322;48.846;9.230;2022-08-19T06:56:51;27.87;;;25.17;;
679;SDS011;322;48.846;9.230;2022-08-19T06:59:19;30.30;;;26.97;;
679;SDS011;322;48.846;9.230;2022-08-19T07:01:53;27.87;;;25.07;;
679;SDS011;322;48.846;9.230;2022-08-19T07:04:22;29.20;;;26.37;;
679;SDS011;322;48.846;9.230;2022-08-19T07:06:55;29.00;;;25.90;;
679;SDS011;322;48.846;9.230;2022-08-19T07:09:23;28.83;;;25.83;;
679;SDS011;322;48.846;9.230;2022-08-19T07:11:51;29.63;;;26.33;;
679;SDS011;322;48.846;9.230;2022-08-19T07:14:23;30.93;;;27.67;;
679;SDS011;322;48.846;9.230;2022-08-19T07:16:55;29.00;;;26.00;;
679;SDS011;322;48.846;9.230;2022-08-19T07:19:23;28.17;;;25.40;;
679;SDS011;322;48.846;9.230;2022-08-19T07:21:52;26.40;;;23.80;;
679;SDS011;322;48.846;9.230;2022-08-19T07:24:20;27.80;;;25.00;;
679;SDS011;322;48.846;9.230;2022-08-19T07:26:48;27.97;;;23.90;;
679;SDS011;322;48.846;9.230;2022-08-19T07:29:17;27.60;;;23.07;;
679;SDS011;322;48.846;9.230;2022-08-19T07:31:48;28.03;;;25.10;;
679;SDS011;322;48.846;9.230;2022-08-19T07:34:16;27.10;;;24.40;;
679;SDS011;322;48.846;9.230;2022-08-19T07:36:44;25.53;;;22.90;;
679;SDS011;322;48.846;9.230;2022-08-19T07:39:12;26.23;;;23.53;;
679;SDS011;322;48.846;9.230;2022-08-19T07:41:42;24.60;;;22.20;;
679;SDS011;322;48.846;9.230;2022-08-19T07:44:09;25.60;;;22.97;;
679;SDS011;322;48.846;9.230;2022-08-19T07:46:38;24.80;;;22.33;;
679;SDS011;322;48.846;9.230;2022-08-19T07:49:07;24.20;;;21.90;;
679;SDS011;322;48.846;9.230;2022-08-19T07:51:44;24.83;;;22.20;;
679;SDS011;322;48.846;9.230;2022-08-19T07:54:11;26.60;;;23.73;;
679;SDS011;322;48.846;9.230;2022-08-19T07:56:38;26.57;;;23.77;;
679;SDS011;322;48.846;9.230;2022-08-19T07:59:05;26.87;;;23.87;;
679;SDS011;322;48.846;9.230;2022-08-19T08:01:32;27.20;;;24.30;;
679;SDS011;322;48.846;9.230;2022-08-19T08:03:59;26.50;;;23.80;;
679;SDS011;322;48.846;9.230;2022-08-19T08:06:45;25.80;;;23.30;;
679;SDS011;322;48.846;9.230;2022-08-19T08:09:30;27.33;;;24.33;;
679;SDS011;322;48.846;9.230;2022-08-19T08:12:00;24.93;;;22.33;;
679;SDS011;322;48.846;9.230;2022-08-19T08:14:31;27.20;;;24.40;;
679;SDS011;322;48.846;9.230;2022-08-19T08:17:00;27.60;;;24.90;;
679;SDS011;322;48.846;9.230;2022-08-19T08:19:28;26.10;;;23.30;;
679;SDS011;322;48.846;9.230;2022-08-19T08:21:57;27.83;;;24.83;;
679;SDS011;322;48.846;9.230;2022-08-19T08:24:26;28.43;;;25.47;;
679;SDS011;322;48.846;9.230;2022-08-19T08:26:55;27.07;;;24.33;;
679;SDS011;322;48.846;9.230;2022-08-19T08:29:24;27.97;;;25.13;;
679;SDS011;322;48.846;9.230;2022-08-19T08:31:51;29.33;;;26.17;;
679;SDS011;322;48.846;9.230;2022-08-19T08:34:19;29.87;;;26.77;;
679;SDS011;322;48.846;9.230;2022-08-19T08:36:46;28.77;;;25.67;;
679;SDS011;322;48.846;9.230;2022-08-19T08:39:15;31.53;;;27.30;;
679;SDS011;322;48.846;9.230;2022-08-19T08:41:44;29.77;;;26.50;;
679;SDS011;322;48.846;9.230;2022-08-19T08:44:19;28.63;;;25.50;;
679;SDS011;322;48.846;9.230;2022-08-19T08:46:49;31.47;;;28.27;;
679;SDS011;322;48.846;9.230;2022-08-19T08:49:25;28.17;;;25.27;;
679;SDS011;322;48.846;9.230;2022-08-19T08:51:58;31.80;;;26.90;;
679;SDS011;322;48.846;9.230;2022-08-19T08:54:30;26.20;;;23.60;;
679;SDS011;322;48.846;9.230;2022-08-19T08:57:02;31.57;;;22.80;;
679;SDS011;322;48.846;9.230;2022-08-19T08:59:34;24.87;;;22.20;;
679;SDS011;322;48.846;9.230;2022-08-19T09:02:03;24.30;;;21.27;;
679;SDS011;322;48.846;9.230;2022-08-19T09:04:30;22.80;;;20.60;;
679;SDS011;322;48.846;9.230;2022-08-19T09:06:58;22.03;;;19.60;;
679;SDS011;322;48.846;9.230;2022-08-19T09:09:37;23.73;;;21.40;;
679;SDS011;322;48.846;9.230;2022-08-19T09:12:08;23.30;;;21.13;;
679;SDS011;322;48.846;9.230;2022-08-19T09:14:49;22.63;;;20.43;;
679;SDS011;322;48.846;9.230;2022-08-19T09:17:19;22.87;;;20.40;;
679;SDS011;322;48.846;9.230;2022-08-19T09:19:53;20.50;;;18.53;;
679;SDS011;322;48.846;9.230;2022-08-19T09:22:22;23.17;;;19.63;;
679;SDS011;322;48.846;9.230;2022-08-19T09:24:51;24.87;;;22.17;;
679;SDS011;322;48.846;9.230;2022-08-19T09:27:18;23.70;;;19.63;;
679;SDS011;322;48.846;9.230;2022-08-19T09:29:46;23.37;;;20.97;;
679;SDS011;322;48.846;9.230;2022-08-19T09:32:13;22.87;;;20.57;;
679;SDS011;322;48.846;9.230;2022-08-19T09:34:40;21.53;;;19.23;;
679;SDS011;322;48.846;9.230;2022-08-19T09:37:08;21.70;;;19.40;;
679;SDS011;322;48.846;9.230;2022-08-19T09:39:35;23.57;;;17.70;;
679;SDS011;322;48.846;9.230;2022-08-19T09:42:04;20.63;;;18.63;;
679;SDS011;322;48.846;9.230;2022-08-19T09:44:36;20.70;;;18.60;;
679;SDS011;322;48.846;9.230;2022-08-19T09:47:03;23.33;;;19.90;;
679;SDS011;322;48.846;9.230;2022-08-19T09:49:30;19.23;;;17.20;;
679;SDS011;322;48.846;9.230;2022-08-19T09:51:57;21.40;;;19.13;;
679;SDS011;322;48.846;9.230;2022-08-19T09:54:24;20.60;;;17.83;;
679;SDS011;322;48.846;9.230;2022-08-19T09:56:51;20.23;;;18.43;;
679;SDS011;322;48.846;9.230;2022-08-19T09:59:20;20.33;;;18.30;;
679;SDS011;322;48.846;9.230;2022-08-19T10:01:47;19.00;;;16.90;;
679;SDS011;322;48.846;9.230;2022-08-19T10:04:14;19.90;;;16.70;;
679;SDS011;322;48.846;9.230;2022-08-19T10:06:41;17.93;;;16.23;;
679;SDS011;322;48.846;9.230;2022-08-19T10:09:08;17.33;;;15.80;;
679;SDS011;322;48.846;9.230;2022-08-19T10:11:36;19.50;;;16.77;;
679;SDS011;322;48.846;9.230;2022-08-19T10:14:06;18.83;;;16.93;;
679;SDS011;322;48.846;9.230;2022-08-19T10:16:34;17.93;;;15.70;;
679;SDS011;322;48.846;9.230;2022-08-19T10:19:04;17.37;;;15.60;;
679;SDS011;322;48.846;9.230;2022-08-19T10:21:31;16.27;;;14.73;;
679;SDS011;322;48.846;9.230;2022-08-19T10:24:00;19.07;;;16.43;;
679;SDS011;322;48.846;9.230;2022-08-19T10:26:31;17.10;;;15.43;;
679;SDS011;322;48.846;9.230;2022-08-19T10:28:59;17.60;;;15.60;;
679;SDS011;322;48.846;9.230;2022-08-19T10:31:28;17.70;;;15.50;;
679;SDS011;322;48.846;9.230;2022-08-19T10:33:59;17.30;;;15.60;;
679;SDS011;322;48.846;9.230;2022-08-19T10:36:27;17.87;;;16.27;;
679;SDS011;322;48.846;9.230;2022-08-19T10:38:57;16.87;;;15.27;;
679;SDS011;322;48.846;9.230;2022-08-19T10:41:29;17.60;;;15.97;;
679;SDS011;322;48.846;9.230;2022-08-19T10:43:58;19.10;;;14.43;;
679;SDS011;322;48.846;9.230;2022-08-19T10:46:27;14.67;;;13.30;;
679;SDS011;322;48.846;9.230;2022-08-19T10:48:57;15.20;;;13.60;;
679;SDS011;322;48.846;9.230;2022-08-19T10:51:25;18.53;;;13.70;;
679;SDS011;322;48.846;9.230;2022-08-19T10:54:10;19.80;;;13.73;;
679;SDS011;322;48.846;9.230;2022-08-19T10:56:37;20.30;;;12.97;;
679;SDS011;322;48.846;9.230;2022-08-19T10:59:19;21.73;;;12.50;;
679;SDS011;322;48.846;9.230;2022-08-19T11:01:47;12.50;;;11.17;;
679;SDS011;322;48.846;9.230;2022-08-19T11:04:17;15.73;;;12.30;;
679;SDS011;322;48.846;9.230;2022-08-19T11:06:45;12.77;;;11.43;;
679;SDS011;322;48.846;9.230;2022-08-19T11:09:13;12.00;;;10.90;;
679;SDS011;322;48.846;9.230;2022-08-19T11:11:40;12.20;;;11.00;;
679;SDS011;322;48.846;9.230;2022-08-19T11:14:07;11.23;;;10.03;;
679;SDS011;322;48.846;9.230;2022-08-19T11:16:35;10.67;;;9.63;;
679;SDS011;322;48.846;9.230;2022-08-19T11:19:04;13.40;;;9.00;;
679;SDS011;322;48.846;9.230;2022-08-19T11:21:34;10.53;;;9.33;;
679;SDS011;322;48.846;9.230;2022-08-19T11:24:03;12.37;;;9.67;;
679;SDS011;322;48.846;9.230;2022-08-19T11:26:32;10.07;;;9.10;;
679;SDS011;322;48.846;9.230;2022-08-19T11:29:00;10.03;;;9.07;;
679;SDS011;322;48.846;9.230;2022-08-19T11:31:30;11.73;;;9.50;;
679;SDS011;322;48.846;9.230;2022-08-19T11:34:00;11.27;;;10.27;;
679;SDS011;322;48.846;9.230;2022-08-19T11:36:28;10.50;;;9.20;;
679;SDS011;322;48.846;9.230;2022-08-19T11:38:58;10.60;;;9.60;;
679;SDS011;322;48.846;9.230;2022-08-19T11:41:26;10.97;;;9.80;;
679;SDS011;322;48.846;9.230;2022-08-19T11:43:53;11.43;;;9.30;;
679;SDS011;322;48.846;9.230;2022-08-19T11:46:21;11.77;;;10.10;;
679;SDS011;322;48.846;9.230;2022-08-19T11:48:49;16.63;;;10.27;;
679;SDS011;322;48.846;9.230;2022-08-19T11:51:18;14.27;;;10.03;;
679;SDS011;322;48.846;9.230;2022-08-19T11:53:46;13.70;;;10.63;;
679;SDS011;322;48.846;9.230;2022-08-19T11:56:16;12.20;;;10.90;;
679;SDS011;322;48.846;9.230;2022-08-19T11:58:43;13.57;;;12.37;;
679;SDS011;322;48.846;9.230;2022-08-19T12:01:12;16.23;;;12.03;;
679;SDS011;322;48.846;9.230;2022-08-19T12:03:41;12.73;;;11.47;;
679;SDS011;322;48.846;9.230;2022-08-19T12:06:10;12.47;;;11.37;;
679;SDS011;322;48.846;9.230;2022-08-19T12:08:39;12.10;;;10.67;;
679;SDS011;322;48.846;9.230;2022-08-19T12:11:06;12.87;;;11.60;;
679;SDS011;322;48.846;9.230;2022-08-19T12:13:34;13.97;;;11.13;;
679;SDS011;322;48.846;9.230;2022-08-19T12:16:06;12.43;;;11.13;;
679;SDS011;322;48.846;9.230;2022-08-19T12:18:34;13.50;;;12.17;;
679;SDS011;322;48.846;9.230;2022-08-19T12:21:01;14.13;;;11.77;;
679;SDS011;322;48.846;9.230;2022-08-19T12:23:29;11.43;;;10.33;;
679;SDS011;322;48.846;9.230;2022-08-19T12:25:55;13.40;;;12.10;;
679;SDS011;322;48.846;9.230;2022-08-19T12:28:23;11.40;;;10.30;;
679;SDS011;322;48.846;9.230;2022-08-19T12:30:52;13.37;;;12.00;;
679;SDS011;322;48.846;9.230;2022-08-19T12:33:19;11.83;;;10.70;;
679;SDS011;322;48.846;9.230;2022-08-19T12:35:50;10.43;;;9.43;;
679;SDS011;322;48.846;9.230;2022-08-19T12:38:18;12.60;;;11.40;;
679;SDS011;322;48.846;9.230;2022-08-19T12:40:45;10.70;;;9.80;;
679;SDS011;322;48.846;9.230;2022-08-19T12:43:13;11.30;;;10.20;;
679;SDS011;322;48.846;9.230;2022-08-19T12:45:40;10.50;;;9.50;;
679;SDS011;322;48.846;9.230;2022-08-19T12:48:10;10.90;;;9.90;;
679;SDS011;322;48.846;9.230;2022-08-19T12:50:38;10.63;;;8.93;;
679;SDS011;322;48.846;9.230;2022-08-19T12:53:05;10.23;;;9.33;;
679;SDS011;322;48.846;9.230;2022-08-19T12:55:32;10.80;;;9.80;;
679;SDS011;322;48.846;9.230;2022-08-19T12:57:59;10.13;;;9.27;;
679;SDS011;322;48.846;9.230;2022-08-19T13:00:27;11.37;;;10.37;;
679;SDS011;322;48.846;9.230;2022-08-19T13:02:57;12.00;;;11.00;;
679;SDS011;322;48.846;9.230;2022-08-19T13:05:26;11.80;;;10.70;;
679;SDS011;322;48.846;9.230;2022-08-19T13:07:55;13.77;;;12.67;;
679;SDS011;322;48.846;9.230;2022-08-19T13:10:27;14.27;;;13.07;;
679;SDS011;322;48.846;9.230;2022-08-19T13:12:56;13.10;;;11.90;;
679;SDS011;322;48.846;9.230;2022-08-19T13:15:24;15.07;;;13.60;;
679;SDS011;322;48.846;9.230;2022-08-19T13:17:53;16.70;;;15.20;;
679;SDS011;322;48.846;9.230;2022-08-19T13:20:21;20.10;;;18.10;;
679;SDS011;322;48.846;9.230;2022-08-19T13:22:50;19.57;;;17.67;;
679;SDS011;322;48.846;9.230;2022-08-19T13:25:18;19.00;;;17.27;;
679;SDS011;322;48.846;9.230;2022-08-19T13:27:45;20.33;;;18.63;;
679;SDS011;322;48.846;9.230;2022-08-19T13:30:13;18.77;;;17.07;;
679;SDS011;322;48.846;9.230;2022-08-19T13:32:58;18.50;;;16.73;;
679;SDS011;322;48.846;9.230;2022-08-19T13:35:39;20.07;;;18.23;;
679;SDS011;322;48.846;9.230;2022-08-19T13:38:10;21.07;;;18.90;;
679;SDS011;322;48.846;9.230;2022-08-19T13:40:38;21.60;;;19.50;;
679;SDS011;322;48.846;9.230;2022-08-19T13:43:05;23.77;;;21.47;;
679;SDS011;322;48.846;9.230;2022-08-19T13:45:34;23.60;;;20.90;;
679;SDS011;322;48.846;9.230;2022-08-19T13:48:02;21.87;;;19.77;;
679;SDS011;322;48.846;9.230;2022-08-19T13:50:31;23.00;;;20.80;;
679;SDS011;322;48.846;9.230;2022-08-19T13:52:59;23.53;;;21.40;;
679;SDS011;322;48.846;9.230;2022-08-19T13:55:28;28.60;;;25.90;;
679;SDS011;322;48.846;9.230;2022-08-19T13:57:55;28.87;;;26.17;;
679;SDS011;322;48.846;9.230;2022-08-19T14:00:24;31.27;;;28.30;;
679;SDS011;322;48.846;9.230;2022-08-19T14:02:52;33.23;;;30.00;;
679;SDS011;322;48.846;9.230;2022-08-19T14:05:21;37.37;;;33.50;;
679;SDS011;322;48.846;9.230;2022-08-19T14:07:49;38.60;;;33.57;;
679;SDS011;322;48.846;9.230;2022-08-19T14:10:16;35.07;;;31.43;;
679;SDS011;322;48.846;9.230;2022-08-19T14:12:45;37.10;;;33.13;;
679;SDS011;322;48.846;9.230;2022-08-19T14:15:13;39.37;;;35.47;;
679;SDS011;322;48.846;9.230;2022-08-19T14:17:41;39.63;;;35.30;;
679;SDS011;322;48.846;9.230;2022-08-19T14:20:11;40.03;;;35.53;;
679;SDS011;322;48.846;9.230;2022-08-19T14:22:40;39.33;;;35.17;;
679;SDS011;322;48.846;9.230;2022-08-19T14:25:09;39.47;;;35.20;;
679;SDS011;322;48.846;9.230;2022-08-19T14:27:39;39.77;;;34.60;;
679;SDS011;322;48.846;9.230;2022-08-19T14:30:08;38.20;;;34.03;;
679;SDS011;322;48.846;9.230;2022-08-19T14:32:39;36.83;;;32.97;;
679;SDS011;322;48.846;9.230;2022-08-19T14:35:08;37.93;;;33.20;;
679;SDS011;322;48.846;9.230;2022-08-19T14:37:37;39.63;;;35.33;;
679;SDS011;322;48.846;9.230;2022-08-19T14:40:05;39.53;;;35.30;;
679;SDS011;322;48.846;9.230;2022-08-19T14:42:33;37.83;;;33.83;;
679;SDS011;322;48.846;9.230;2022-08-19T14:45:00;39.23;;;34.50;;
679;SDS011;322;48.846;9.230;2022-08-19T14:47:28;36.00;;;32.33;;
679;SDS011;322;48.846;9.230;2022-08-19T14:49:55;38.30;;;34.20;;
679;SDS011;322;48.846;9.230;2022-08-19T14:52:22;36.53;;;32.53;;
679;SDS011;322;48.846;9.230;2022-08-19T14:54:50;34.27;;;30.23;;
679;SDS011;322;48.846;9.230;2022-08-19T14:57:16;35.70;;;31.93;;
679;SDS011;322;48.846;9.230;2022-08-19T14:59:44;37.57;;;33.33;;
679;SDS011;322;48.846;9.230;2022-08-19T15:02:11;33.50;;;30.10;;
679;SDS011;322;48.846;9.230;2022-08-19T15:04:39;33.13;;;29.83;;
679;SDS011;322;48.846;9.230;2022-08-19T15:07:06;32.50;;;29.30;;
679;SDS011;322;48.846;9.230;2022-08-19T15:09:34;29.60;;;26.80;;
679;SDS011;322;48.846;9.230;2022-08-19T15:12:01;29.67;;;26.97;;
679;SDS011;322;48.846;9.230;2022-08-19T15:14:29;32.43;;;29.33;;
679;SDS011;322;48.846;9.230;2022-08-19T15:16:59;29.83;;;26.60;;
679;SDS011;322;48.846;9.230;2022-08-19T15:19:27;27.13;;;24.63;;
679;SDS011;322;48.846;9.230;2022-08-19T15:21:56;26.60;;;24.10;;
679;SDS011;322;48.846;9.230;2022-08-19T15:24:23;25.73;;;23.33;;
679;SDS011;322;48.846;9.230;2022-08-19T15:26:50;26.83;;;24.13;;